sensor_id;sensor_type;location;lat;lon;timestamp;P1;durP1;ratioP1;P2;durP2;ratioP2
18146;SDS011;9199;48.832;9.182;2023-07-22T00:01:41;4.97;;;2.70;;
18146;SDS011;9199;48.832;9.182;2023-07-22T00:04:08;4.75;;;2.30;;
18146;SDS011;9199;48.832;9.182;2023-07-22T00:06:34;5.43;;;2.40;;
18146;SDS011;9199;48.832;9.182;2023-07-22T00:09:01;5.65;;;2.47;;
18146;SDS011;9199;48.832;9.182;2023-07-22T00:11:28;6.03;;;2.40;;
18146;SDS011;9199;48.832;9.182;2023-07-22T00:13:55;4.30;;;2.17;;
18146;SDS011;9199;48.832;9.182;2023-07-22T00:16:23;5.15;;;2.47;;
18146;SDS011;9199;48.832;9.182;2023-07-22T00:18:50;4.63;;;2.20;;
18146;SDS011;9199;48.832;9.182;2023-07-22T00:21:16;5.13;;;2.38;;
18146;SDS011;9199;48.832;9.182;2023-07-22T00:23:43;5.03;;;2.40;;
18146;SDS011;9199;48.832;9.182;2023-07-22T00:26:11;5.00;;;2.25;;
18146;SDS011;9199;48.832;9.182;2023-07-22T00:28:37;4.80;;;2.47;;
18146;SDS011;9199;48.832;9.182;2023-07-22T00:31:04;5.17;;;2.80;;
18146;SDS011;9199;48.832;9.182;2023-07-22T00:33:32;6.32;;;2.30;;
18146;SDS011;9199;48.832;9.182;2023-07-22T00:35:59;5.85;;;2.67;;
18146;SDS011;9199;48.832;9.182;2023-07-22T00:38:26;6.18;;;2.60;;
18146;SDS011;9199;48.832;9.182;2023-07-22T00:40:53;4.50;;;2.15;;
18146;SDS011;9199;48.832;9.182;2023-07-22T00:43:19;5.73;;;2.50;;
18146;SDS011;9199;48.832;9.182;2023-07-22T00:45:46;7.75;;;2.70;;
18146;SDS011;9199;48.832;9.182;2023-07-22T00:48:13;5.20;;;2.45;;
18146;SDS011;9199;48.832;9.182;2023-07-22T00:50:42;5.10;;;2.30;;
18146;SDS011;9199;48.832;9.182;2023-07-22T00:53:09;5.65;;;2.30;;
18146;SDS011;9199;48.832;9.182;2023-07-22T00:55:36;4.83;;;2.53;;
18146;SDS011;9199;48.832;9.182;2023-07-22T00:58:05;5.28;;;2.38;;
18146;SDS011;9199;48.832;9.182;2023-07-22T01:00:32;6.97;;;2.30;;
18146;SDS011;9199;48.832;9.182;2023-07-22T01:02:59;4.18;;;2.03;;
18146;SDS011;9199;48.832;9.182;2023-07-22T01:05:26;4.72;;;2.40;;
18146;SDS011;9199;48.832;9.182;2023-07-22T01:07:55;4.83;;;2.00;;
18146;SDS011;9199;48.832;9.182;2023-07-22T01:10:22;4.95;;;2.40;;
18146;SDS011;9199;48.832;9.182;2023-07-22T01:12:49;5.15;;;2.15;;
18146;SDS011;9199;48.832;9.182;2023-07-22T01:15:15;5.43;;;2.33;;
18146;SDS011;9199;48.832;9.182;2023-07-22T01:17:43;5.95;;;2.40;;
18146;SDS011;9199;48.832;9.182;2023-07-22T01:20:11;5.17;;;2.10;;
18146;SDS011;9199;48.832;9.182;2023-07-22T01:22:38;5.22;;;2.63;;
18146;SDS011;9199;48.832;9.182;2023-07-22T01:25:08;4.90;;;2.40;;
18146;SDS011;9199;48.832;9.182;2023-07-22T01:27:35;5.18;;;2.40;;
18146;SDS011;9199;48.832;9.182;2023-07-22T01:30:02;4.60;;;2.20;;
18146;SDS011;9199;48.832;9.182;2023-07-22T01:32:29;4.50;;;2.20;;
18146;SDS011;9199;48.832;9.182;2023-07-22T01:34:57;5.93;;;2.30;;
18146;SDS011;9199;48.832;9.182;2023-07-22T01:37:23;5.53;;;2.30;;
18146;SDS011;9199;48.832;9.182;2023-07-22T01:39:50;5.05;;;2.30;;
18146;SDS011;9199;48.832;9.182;2023-07-22T01:42:19;4.40;;;2.33;;
18146;SDS011;9199;48.832;9.182;2023-07-22T01:44:46;5.33;;;2.30;;
18146;SDS011;9199;48.832;9.182;2023-07-22T01:47:12;4.93;;;2.30;;
18146;SDS011;9199;48.832;9.182;2023-07-22T01:49:39;5.57;;;2.38;;
18146;SDS011;9199;48.832;9.182;2023-07-22T01:52:06;5.55;;;2.60;;
18146;SDS011;9199;48.832;9.182;2023-07-22T01:54:33;5.38;;;2.40;;
18146;SDS011;9199;48.832;9.182;2023-07-22T01:57:00;4.80;;;2.40;;
18146;SDS011;9199;48.832;9.182;2023-07-22T01:59:28;5.70;;;2.17;;
18146;SDS011;9199;48.832;9.182;2023-07-22T02:01:54;4.80;;;2.38;;
18146;SDS011;9199;48.832;9.182;2023-07-22T02:04:22;5.68;;;2.30;;
18146;SDS011;9199;48.832;9.182;2023-07-22T02:06:48;5.43;;;2.20;;
18146;SDS011;9199;48.832;9.182;2023-07-22T02:09:15;5.80;;;2.37;;
18146;SDS011;9199;48.832;9.182;2023-07-22T02:11:42;6.10;;;2.40;;
18146;SDS011;9199;48.832;9.182;2023-07-22T02:14:08;5.72;;;2.15;;
18146;SDS011;9199;48.832;9.182;2023-07-22T02:16:36;5.10;;;2.50;;
18146;SDS011;9199;48.832;9.182;2023-07-22T02:19:03;6.38;;;2.70;;
18146;SDS011;9199;48.832;9.182;2023-07-22T02:21:30;5.87;;;2.97;;
18146;SDS011;9199;48.832;9.182;2023-07-22T02:23:57;5.78;;;2.90;;
18146;SDS011;9199;48.832;9.182;2023-07-22T02:26:24;5.38;;;2.40;;
18146;SDS011;9199;48.832;9.182;2023-07-22T02:28:51;4.63;;;2.42;;
18146;SDS011;9199;48.832;9.182;2023-07-22T02:31:17;4.88;;;2.40;;
18146;SDS011;9199;48.832;9.182;2023-07-22T02:33:45;5.83;;;2.37;;
18146;SDS011;9199;48.832;9.182;2023-07-22T02:36:13;4.80;;;2.60;;
18146;SDS011;9199;48.832;9.182;2023-07-22T02:38:39;4.35;;;2.15;;
18146;SDS011;9199;48.832;9.182;2023-07-22T02:41:06;4.95;;;2.38;;
18146;SDS011;9199;48.832;9.182;2023-07-22T02:43:33;4.65;;;2.50;;
18146;SDS011;9199;48.832;9.182;2023-07-22T02:46:00;7.20;;;2.40;;
18146;SDS011;9199;48.832;9.182;2023-07-22T02:48:29;5.28;;;2.50;;
18146;SDS011;9199;48.832;9.182;2023-07-22T02:51:02;6.15;;;2.60;;
18146;SDS011;9199;48.832;9.182;2023-07-22T02:53:30;5.40;;;2.40;;
18146;SDS011;9199;48.832;9.182;2023-07-22T02:55:57;5.90;;;2.45;;
18146;SDS011;9199;48.832;9.182;2023-07-22T02:58:24;6.70;;;2.70;;
18146;SDS011;9199;48.832;9.182;2023-07-22T03:00:51;4.60;;;2.33;;
18146;SDS011;9199;48.832;9.182;2023-07-22T03:03:18;6.60;;;2.78;;
18146;SDS011;9199;48.832;9.182;2023-07-22T03:05:45;4.78;;;2.58;;
18146;SDS011;9199;48.832;9.182;2023-07-22T03:08:13;4.95;;;2.80;;
18146;SDS011;9199;48.832;9.182;2023-07-22T03:10:40;6.07;;;2.53;;
18146;SDS011;9199;48.832;9.182;2023-07-22T03:13:09;5.25;;;2.88;;
18146;SDS011;9199;48.832;9.182;2023-07-22T03:15:35;4.82;;;2.95;;
18146;SDS011;9199;48.832;9.182;2023-07-22T03:18:02;4.72;;;2.40;;
18146;SDS011;9199;48.832;9.182;2023-07-22T03:20:29;4.88;;;2.70;;
18146;SDS011;9199;48.832;9.182;2023-07-22T03:22:56;6.80;;;2.73;;
18146;SDS011;9199;48.832;9.182;2023-07-22T03:25:24;5.45;;;2.70;;
18146;SDS011;9199;48.832;9.182;2023-07-22T03:27:51;5.60;;;2.65;;
18146;SDS011;9199;48.832;9.182;2023-07-22T03:30:18;4.85;;;2.53;;
18146;SDS011;9199;48.832;9.182;2023-07-22T03:32:45;5.75;;;2.75;;
18146;SDS011;9199;48.832;9.182;2023-07-22T03:35:14;5.23;;;2.73;;
18146;SDS011;9199;48.832;9.182;2023-07-22T03:37:40;7.15;;;2.70;;
18146;SDS011;9199;48.832;9.182;2023-07-22T03:40:08;6.13;;;2.90;;
18146;SDS011;9199;48.832;9.182;2023-07-22T03:42:44;5.57;;;3.10;;
18146;SDS011;9199;48.832;9.182;2023-07-22T03:45:11;6.05;;;2.60;;
18146;SDS011;9199;48.832;9.182;2023-07-22T03:47:39;5.27;;;2.83;;
18146;SDS011;9199;48.832;9.182;2023-07-22T03:50:06;5.13;;;2.80;;
18146;SDS011;9199;48.832;9.182;2023-07-22T03:52:34;5.57;;;2.60;;
18146;SDS011;9199;48.832;9.182;2023-07-22T03:55:00;4.88;;;2.67;;
18146;SDS011;9199;48.832;9.182;2023-07-22T03:57:27;7.20;;;3.05;;
18146;SDS011;9199;48.832;9.182;2023-07-22T03:59:56;4.67;;;2.67;;
18146;SDS011;9199;48.832;9.182;2023-07-22T04:02:23;5.75;;;2.72;;
18146;SDS011;9199;48.832;9.182;2023-07-22T04:04:51;6.35;;;2.78;;
18146;SDS011;9199;48.832;9.182;2023-07-22T04:07:18;6.03;;;2.72;;
18146;SDS011;9199;48.832;9.182;2023-07-22T04:09:44;5.40;;;2.60;;
18146;SDS011;9199;48.832;9.182;2023-07-22T04:12:11;5.07;;;2.57;;
18146;SDS011;9199;48.832;9.182;2023-07-22T04:14:38;5.30;;;2.65;;
18146;SDS011;9199;48.832;9.182;2023-07-22T04:17:07;5.25;;;2.53;;
18146;SDS011;9199;48.832;9.182;2023-07-22T04:19:33;4.60;;;2.10;;
18146;SDS011;9199;48.832;9.182;2023-07-22T04:22:00;4.72;;;2.33;;
18146;SDS011;9199;48.832;9.182;2023-07-22T04:24:29;5.10;;;2.40;;
18146;SDS011;9199;48.832;9.182;2023-07-22T04:26:56;4.90;;;2.97;;
18146;SDS011;9199;48.832;9.182;2023-07-22T04:29:23;6.63;;;2.50;;
18146;SDS011;9199;48.832;9.182;2023-07-22T04:31:49;5.88;;;2.53;;
18146;SDS011;9199;48.832;9.182;2023-07-22T04:34:17;4.68;;;2.38;;
18146;SDS011;9199;48.832;9.182;2023-07-22T04:36:44;5.53;;;2.60;;
18146;SDS011;9199;48.832;9.182;2023-07-22T04:39:11;7.22;;;2.80;;
18146;SDS011;9199;48.832;9.182;2023-07-22T04:41:38;4.78;;;2.53;;
18146;SDS011;9199;48.832;9.182;2023-07-22T04:44:05;4.97;;;2.65;;
18146;SDS011;9199;48.832;9.182;2023-07-22T04:46:31;5.63;;;2.50;;
18146;SDS011;9199;48.832;9.182;2023-07-22T04:48:58;5.53;;;2.27;;
18146;SDS011;9199;48.832;9.182;2023-07-22T04:51:26;5.13;;;2.40;;
18146;SDS011;9199;48.832;9.182;2023-07-22T04:53:53;5.10;;;2.40;;
18146;SDS011;9199;48.832;9.182;2023-07-22T04:56:19;6.07;;;2.65;;
18146;SDS011;9199;48.832;9.182;2023-07-22T04:58:46;7.45;;;2.50;;
18146;SDS011;9199;48.832;9.182;2023-07-22T05:01:14;5.67;;;3.00;;
18146;SDS011;9199;48.832;9.182;2023-07-22T05:03:41;6.40;;;2.90;;
18146;SDS011;9199;48.832;9.182;2023-07-22T05:06:08;5.30;;;2.53;;
18146;SDS011;9199;48.832;9.182;2023-07-22T05:08:36;5.38;;;2.78;;
18146;SDS011;9199;48.832;9.182;2023-07-22T05:11:03;7.35;;;2.80;;
18146;SDS011;9199;48.832;9.182;2023-07-22T05:13:30;6.33;;;2.60;;
18146;SDS011;9199;48.832;9.182;2023-07-22T05:15:57;4.78;;;2.72;;
18146;SDS011;9199;48.832;9.182;2023-07-22T05:18:24;5.65;;;2.45;;
18146;SDS011;9199;48.832;9.182;2023-07-22T05:20:50;6.13;;;2.85;;
18146;SDS011;9199;48.832;9.182;2023-07-22T05:23:17;6.00;;;2.78;;
18146;SDS011;9199;48.832;9.182;2023-07-22T05:25:49;6.43;;;2.67;;
18146;SDS011;9199;48.832;9.182;2023-07-22T05:28:17;5.03;;;2.63;;
18146;SDS011;9199;48.832;9.182;2023-07-22T05:30:43;6.07;;;2.55;;
18146;SDS011;9199;48.832;9.182;2023-07-22T05:33:10;5.78;;;2.70;;
18146;SDS011;9199;48.832;9.182;2023-07-22T05:35:37;4.50;;;2.40;;
18146;SDS011;9199;48.832;9.182;2023-07-22T05:38:03;8.30;;;2.90;;
18146;SDS011;9199;48.832;9.182;2023-07-22T05:40:31;5.78;;;2.58;;
18146;SDS011;9199;48.832;9.182;2023-07-22T05:42:59;5.45;;;2.33;;
18146;SDS011;9199;48.832;9.182;2023-07-22T05:45:26;5.47;;;2.58;;
18146;SDS011;9199;48.832;9.182;2023-07-22T05:47:52;5.85;;;2.80;;
18146;SDS011;9199;48.832;9.182;2023-07-22T05:50:19;6.37;;;2.70;;
18146;SDS011;9199;48.832;9.182;2023-07-22T05:52:46;6.72;;;2.75;;
18146;SDS011;9199;48.832;9.182;2023-07-22T05:55:13;4.80;;;2.53;;
18146;SDS011;9199;48.832;9.182;2023-07-22T05:57:40;5.80;;;2.85;;
18146;SDS011;9199;48.832;9.182;2023-07-22T06:00:09;8.07;;;3.08;;
18146;SDS011;9199;48.832;9.182;2023-07-22T06:02:38;5.37;;;2.80;;
18146;SDS011;9199;48.832;9.182;2023-07-22T06:05:04;5.88;;;2.92;;
18146;SDS011;9199;48.832;9.182;2023-07-22T06:07:31;6.28;;;2.72;;
18146;SDS011;9199;48.832;9.182;2023-07-22T06:09:58;5.18;;;2.58;;
18146;SDS011;9199;48.832;9.182;2023-07-22T06:12:25;5.57;;;2.92;;
18146;SDS011;9199;48.832;9.182;2023-07-22T06:14:52;6.87;;;2.53;;
18146;SDS011;9199;48.832;9.182;2023-07-22T06:17:20;5.75;;;2.70;;
18146;SDS011;9199;48.832;9.182;2023-07-22T06:19:47;6.15;;;2.67;;
18146;SDS011;9199;48.832;9.182;2023-07-22T06:22:13;8.20;;;2.88;;
18146;SDS011;9199;48.832;9.182;2023-07-22T06:24:40;4.78;;;2.50;;
18146;SDS011;9199;48.832;9.182;2023-07-22T06:27:06;10.37;;;3.10;;
18146;SDS011;9199;48.832;9.182;2023-07-22T06:29:33;5.93;;;2.80;;
18146;SDS011;9199;48.832;9.182;2023-07-22T06:32:00;6.22;;;2.63;;
18146;SDS011;9199;48.832;9.182;2023-07-22T06:34:28;7.53;;;2.92;;
18146;SDS011;9199;48.832;9.182;2023-07-22T06:36:54;5.80;;;2.60;;
18146;SDS011;9199;48.832;9.182;2023-07-22T06:39:21;6.45;;;2.58;;
18146;SDS011;9199;48.832;9.182;2023-07-22T06:41:48;4.78;;;2.13;;
18146;SDS011;9199;48.832;9.182;2023-07-22T06:44:14;5.00;;;2.53;;
18146;SDS011;9199;48.832;9.182;2023-07-22T06:46:41;5.57;;;2.47;;
18146;SDS011;9199;48.832;9.182;2023-07-22T06:49:09;5.97;;;2.37;;
18146;SDS011;9199;48.832;9.182;2023-07-22T06:51:37;6.32;;;2.40;;
18146;SDS011;9199;48.832;9.182;2023-07-22T06:54:04;7.72;;;2.50;;
18146;SDS011;9199;48.832;9.182;2023-07-22T06:56:30;5.72;;;2.50;;
18146;SDS011;9199;48.832;9.182;2023-07-22T06:58:57;5.70;;;2.28;;
18146;SDS011;9199;48.832;9.182;2023-07-22T07:01:24;5.10;;;2.20;;
18146;SDS011;9199;48.832;9.182;2023-07-22T07:03:51;4.35;;;2.22;;
18146;SDS011;9199;48.832;9.182;2023-07-22T07:06:17;4.18;;;2.38;;
18146;SDS011;9199;48.832;9.182;2023-07-22T07:08:46;4.57;;;2.25;;
18146;SDS011;9199;48.832;9.182;2023-07-22T07:11:14;6.53;;;2.30;;
18146;SDS011;9199;48.832;9.182;2023-07-22T07:13:40;5.67;;;2.40;;
18146;SDS011;9199;48.832;9.182;2023-07-22T07:16:19;4.60;;;2.17;;
18146;SDS011;9199;48.832;9.182;2023-07-22T07:18:47;5.63;;;2.20;;
18146;SDS011;9199;48.832;9.182;2023-07-22T07:21:14;4.60;;;2.47;;
18146;SDS011;9199;48.832;9.182;2023-07-22T07:23:41;4.90;;;2.50;;
18146;SDS011;9199;48.832;9.182;2023-07-22T07:26:09;6.47;;;2.10;;
18146;SDS011;9199;48.832;9.182;2023-07-22T07:28:36;7.05;;;2.55;;
18146;SDS011;9199;48.832;9.182;2023-07-22T07:31:02;4.43;;;2.30;;
18146;SDS011;9199;48.832;9.182;2023-07-22T07:33:29;4.95;;;2.53;;
18146;SDS011;9199;48.832;9.182;2023-07-22T07:35:56;4.15;;;2.28;;
18146;SDS011;9199;48.832;9.182;2023-07-22T07:38:23;5.33;;;2.33;;
18146;SDS011;9199;48.832;9.182;2023-07-22T07:40:51;5.10;;;2.10;;
18146;SDS011;9199;48.832;9.182;2023-07-22T07:43:19;5.63;;;2.40;;
18146;SDS011;9199;48.832;9.182;2023-07-22T07:45:46;6.88;;;2.38;;
18146;SDS011;9199;48.832;9.182;2023-07-22T07:48:13;10.13;;;2.30;;
18146;SDS011;9199;48.832;9.182;2023-07-22T07:50:40;5.17;;;2.47;;
18146;SDS011;9199;48.832;9.182;2023-07-22T07:53:08;4.47;;;2.03;;
18146;SDS011;9199;48.832;9.182;2023-07-22T07:55:34;5.50;;;2.30;;
18146;SDS011;9199;48.832;9.182;2023-07-22T07:58:01;7.05;;;2.20;;
18146;SDS011;9199;48.832;9.182;2023-07-22T08:00:29;5.35;;;1.80;;
18146;SDS011;9199;48.832;9.182;2023-07-22T08:02:56;5.77;;;2.10;;
18146;SDS011;9199;48.832;9.182;2023-07-22T08:05:23;5.57;;;2.17;;
18146;SDS011;9199;48.832;9.182;2023-07-22T08:07:49;4.72;;;2.10;;
18146;SDS011;9199;48.832;9.182;2023-07-22T08:10:16;4.38;;;2.17;;
18146;SDS011;9199;48.832;9.182;2023-07-22T08:12:43;3.83;;;2.10;;
18146;SDS011;9199;48.832;9.182;2023-07-22T08:15:10;4.20;;;1.93;;
18146;SDS011;9199;48.832;9.182;2023-07-22T08:17:38;5.43;;;2.10;;
18146;SDS011;9199;48.832;9.182;2023-07-22T08:20:05;4.90;;;1.90;;
18146;SDS011;9199;48.832;9.182;2023-07-22T08:22:37;7.53;;;2.00;;
18146;SDS011;9199;48.832;9.182;2023-07-22T08:25:04;4.72;;;2.00;;
18146;SDS011;9199;48.832;9.182;2023-07-22T08:27:32;5.10;;;2.10;;
18146;SDS011;9199;48.832;9.182;2023-07-22T08:29:59;5.93;;;2.35;;
18146;SDS011;9199;48.832;9.182;2023-07-22T08:32:26;4.55;;;1.95;;
18146;SDS011;9199;48.832;9.182;2023-07-22T08:34:54;5.15;;;2.42;;
18146;SDS011;9199;48.832;9.182;2023-07-22T08:37:21;5.55;;;2.10;;
18146;SDS011;9199;48.832;9.182;2023-07-22T08:39:48;4.17;;;1.90;;
18146;SDS011;9199;48.832;9.182;2023-07-22T08:42:14;3.65;;;1.63;;
18146;SDS011;9199;48.832;9.182;2023-07-22T08:44:44;5.32;;;2.00;;
18146;SDS011;9199;48.832;9.182;2023-07-22T08:47:15;4.25;;;2.03;;
18146;SDS011;9199;48.832;9.182;2023-07-22T08:49:42;4.43;;;2.08;;
18146;SDS011;9199;48.832;9.182;2023-07-22T08:52:15;6.03;;;2.20;;
18146;SDS011;9199;48.832;9.182;2023-07-22T08:54:42;5.50;;;2.00;;
18146;SDS011;9199;48.832;9.182;2023-07-22T08:57:10;4.28;;;2.00;;
18146;SDS011;9199;48.832;9.182;2023-07-22T08:59:37;5.25;;;2.10;;
18146;SDS011;9199;48.832;9.182;2023-07-22T09:02:05;5.30;;;2.00;;
18146;SDS011;9199;48.832;9.182;2023-07-22T09:04:35;5.73;;;2.07;;
18146;SDS011;9199;48.832;9.182;2023-07-22T09:07:02;5.65;;;1.98;;
18146;SDS011;9199;48.832;9.182;2023-07-22T09:09:30;4.88;;;2.38;;
18146;SDS011;9199;48.832;9.182;2023-07-22T09:11:58;5.25;;;2.10;;
18146;SDS011;9199;48.832;9.182;2023-07-22T09:14:26;6.25;;;2.00;;
18146;SDS011;9199;48.832;9.182;2023-07-22T09:16:54;5.13;;;2.17;;
18146;SDS011;9199;48.832;9.182;2023-07-22T09:19:20;5.10;;;2.00;;
18146;SDS011;9199;48.832;9.182;2023-07-22T09:21:47;5.45;;;1.73;;
18146;SDS011;9199;48.832;9.182;2023-07-22T09:24:19;4.30;;;1.75;;
18146;SDS011;9199;48.832;9.182;2023-07-22T09:26:49;5.07;;;2.13;;
18146;SDS011;9199;48.832;9.182;2023-07-22T09:29:16;3.83;;;1.80;;
18146;SDS011;9199;48.832;9.182;2023-07-22T09:31:49;4.45;;;1.77;;
18146;SDS011;9199;48.832;9.182;2023-07-22T09:34:17;4.22;;;2.00;;
18146;SDS011;9199;48.832;9.182;2023-07-22T09:36:49;4.95;;;2.20;;
18146;SDS011;9199;48.832;9.182;2023-07-22T09:39:17;4.80;;;2.22;;
18146;SDS011;9199;48.832;9.182;2023-07-22T09:41:43;4.53;;;1.97;;
18146;SDS011;9199;48.832;9.182;2023-07-22T09:44:12;5.93;;;2.30;;
18146;SDS011;9199;48.832;9.182;2023-07-22T09:46:38;5.25;;;2.03;;
18146;SDS011;9199;48.832;9.182;2023-07-22T09:49:06;3.55;;;1.50;;
18146;SDS011;9199;48.832;9.182;2023-07-22T09:51:35;5.20;;;1.80;;
18146;SDS011;9199;48.832;9.182;2023-07-22T09:54:03;3.80;;;1.73;;
18146;SDS011;9199;48.832;9.182;2023-07-22T09:56:32;4.43;;;1.83;;
18146;SDS011;9199;48.832;9.182;2023-07-22T09:59:08;5.35;;;1.80;;
18146;SDS011;9199;48.832;9.182;2023-07-22T10:01:39;3.70;;;1.67;;
18146;SDS011;9199;48.832;9.182;2023-07-22T10:04:06;3.20;;;1.63;;
18146;SDS011;9199;48.832;9.182;2023-07-22T10:06:34;4.77;;;1.83;;
18146;SDS011;9199;48.832;9.182;2023-07-22T10:09:02;3.80;;;1.73;;
18146;SDS011;9199;48.832;9.182;2023-07-22T10:11:32;4.05;;;1.60;;
18146;SDS011;9199;48.832;9.182;2023-07-22T10:13:59;4.03;;;1.70;;
18146;SDS011;9199;48.832;9.182;2023-07-22T10:16:27;4.20;;;1.55;;
18146;SDS011;9199;48.832;9.182;2023-07-22T10:18:57;4.07;;;1.57;;
18146;SDS011;9199;48.832;9.182;2023-07-22T10:21:25;6.10;;;3.00;;
18146;SDS011;9199;48.832;9.182;2023-07-22T10:23:54;6.38;;;2.00;;
18146;SDS011;9199;48.832;9.182;2023-07-22T10:26:22;6.15;;;1.60;;
18146;SDS011;9199;48.832;9.182;2023-07-22T10:28:48;3.72;;;1.63;;
18146;SDS011;9199;48.832;9.182;2023-07-22T10:31:16;5.27;;;1.80;;
18146;SDS011;9199;48.832;9.182;2023-07-22T10:33:44;3.65;;;1.50;;
18146;SDS011;9199;48.832;9.182;2023-07-22T10:36:14;3.35;;;1.55;;
18146;SDS011;9199;48.832;9.182;2023-07-22T10:38:42;4.28;;;1.65;;
18146;SDS011;9199;48.832;9.182;2023-07-22T10:41:12;3.50;;;1.38;;
18146;SDS011;9199;48.832;9.182;2023-07-22T10:43:42;3.47;;;1.50;;
18146;SDS011;9199;48.832;9.182;2023-07-22T10:46:20;3.95;;;1.65;;
18146;SDS011;9199;48.832;9.182;2023-07-22T10:49:01;3.30;;;1.42;;
18146;SDS011;9199;48.832;9.182;2023-07-22T10:51:36;3.33;;;1.20;;
18146;SDS011;9199;48.832;9.182;2023-07-22T10:54:03;3.90;;;1.50;;
18146;SDS011;9199;48.832;9.182;2023-07-22T10:56:37;3.40;;;1.37;;
18146;SDS011;9199;48.832;9.182;2023-07-22T10:59:04;4.60;;;1.65;;
18146;SDS011;9199;48.832;9.182;2023-07-22T11:01:34;3.05;;;1.33;;
18146;SDS011;9199;48.832;9.182;2023-07-22T11:06:57;3.53;;;1.60;;
18146;SDS011;9199;48.832;9.182;2023-07-22T11:12:09;2.60;;;1.40;;
18146;SDS011;9199;48.832;9.182;2023-07-22T11:14:39;3.90;;;1.48;;
18146;SDS011;9199;48.832;9.182;2023-07-22T11:17:10;6.55;;;1.58;;
18146;SDS011;9199;48.832;9.182;2023-07-22T11:19:37;3.33;;;1.40;;
18146;SDS011;9199;48.832;9.182;2023-07-22T11:22:06;3.50;;;1.33;;
18146;SDS011;9199;48.832;9.182;2023-07-22T11:24:34;4.78;;;1.40;;
18146;SDS011;9199;48.832;9.182;2023-07-22T11:27:02;4.45;;;1.30;;
18146;SDS011;9199;48.832;9.182;2023-07-22T11:29:30;4.00;;;1.60;;
18146;SDS011;9199;48.832;9.182;2023-07-22T11:31:57;3.10;;;1.40;;
18146;SDS011;9199;48.832;9.182;2023-07-22T11:34:24;4.50;;;1.63;;
18146;SDS011;9199;48.832;9.182;2023-07-22T11:36:52;3.65;;;1.48;;
18146;SDS011;9199;48.832;9.182;2023-07-22T11:39:21;3.25;;;1.45;;
18146;SDS011;9199;48.832;9.182;2023-07-22T11:41:50;4.45;;;1.40;;
18146;SDS011;9199;48.832;9.182;2023-07-22T11:44:18;5.32;;;1.55;;
18146;SDS011;9199;48.832;9.182;2023-07-22T11:46:47;4.10;;;1.80;;
18146;SDS011;9199;48.832;9.182;2023-07-22T11:49:23;4.20;;;1.85;;
18146;SDS011;9199;48.832;9.182;2023-07-22T11:51:53;4.18;;;1.88;;
18146;SDS011;9199;48.832;9.182;2023-07-22T11:54:23;5.55;;;1.80;;
18146;SDS011;9199;48.832;9.182;2023-07-22T11:56:50;4.22;;;1.70;;
18146;SDS011;9199;48.832;9.182;2023-07-22T11:59:16;3.83;;;1.70;;
18146;SDS011;9199;48.832;9.182;2023-07-22T12:01:44;4.38;;;1.92;;
18146;SDS011;9199;48.832;9.182;2023-07-22T12:04:12;4.28;;;1.80;;
18146;SDS011;9199;48.832;9.182;2023-07-22T12:06:39;3.95;;;1.70;;
18146;SDS011;9199;48.832;9.182;2023-07-22T12:09:07;3.40;;;1.80;;
18146;SDS011;9199;48.832;9.182;2023-07-22T12:11:36;3.60;;;1.60;;
18146;SDS011;9199;48.832;9.182;2023-07-22T12:14:09;3.75;;;1.58;;
18146;SDS011;9199;48.832;9.182;2023-07-22T12:16:37;3.50;;;1.90;;
18146;SDS011;9199;48.832;9.182;2023-07-22T12:19:05;3.33;;;1.60;;
18146;SDS011;9199;48.832;9.182;2023-07-22T12:21:33;4.03;;;1.85;;
18146;SDS011;9199;48.832;9.182;2023-07-22T12:24:00;5.30;;;1.80;;
18146;SDS011;9199;48.832;9.182;2023-07-22T12:26:28;4.72;;;1.60;;
18146;SDS011;9199;48.832;9.182;2023-07-22T12:28:56;3.05;;;1.60;;
18146;SDS011;9199;48.832;9.182;2023-07-22T12:31:22;4.53;;;1.60;;
18146;SDS011;9199;48.832;9.182;2023-07-22T12:33:49;4.10;;;1.80;;
18146;SDS011;9199;48.832;9.182;2023-07-22T12:36:16;4.50;;;2.00;;
18146;SDS011;9199;48.832;9.182;2023-07-22T12:38:42;3.72;;;1.60;;
18146;SDS011;9199;48.832;9.182;2023-07-22T12:41:09;6.22;;;1.85;;
18146;SDS011;9199;48.832;9.182;2023-07-22T12:43:36;4.57;;;2.00;;
18146;SDS011;9199;48.832;9.182;2023-07-22T12:46:04;5.88;;;1.88;;
18146;SDS011;9199;48.832;9.182;2023-07-22T12:48:31;4.70;;;2.00;;
18146;SDS011;9199;48.832;9.182;2023-07-22T12:50:57;4.00;;;1.90;;
18146;SDS011;9199;48.832;9.182;2023-07-22T12:53:25;5.95;;;1.90;;
18146;SDS011;9199;48.832;9.182;2023-07-22T12:55:54;4.65;;;2.22;;
18146;SDS011;9199;48.832;9.182;2023-07-22T12:58:21;4.00;;;1.90;;
18146;SDS011;9199;48.832;9.182;2023-07-22T13:00:47;4.07;;;1.93;;
18146;SDS011;9199;48.832;9.182;2023-07-22T13:03:15;4.40;;;1.90;;
18146;SDS011;9199;48.832;9.182;2023-07-22T13:05:42;3.60;;;2.00;;
18146;SDS011;9199;48.832;9.182;2023-07-22T13:08:09;3.80;;;2.03;;
18146;SDS011;9199;48.832;9.182;2023-07-22T13:10:36;4.30;;;1.88;;
18146;SDS011;9199;48.832;9.182;2023-07-22T13:13:04;4.17;;;1.97;;
18146;SDS011;9199;48.832;9.182;2023-07-22T13:15:31;4.88;;;2.10;;
18146;SDS011;9199;48.832;9.182;2023-07-22T13:17:58;3.42;;;1.70;;
18146;SDS011;9199;48.832;9.182;2023-07-22T13:20:26;4.68;;;1.90;;
18146;SDS011;9199;48.832;9.182;2023-07-22T13:22:53;5.85;;;1.92;;
18146;SDS011;9199;48.832;9.182;2023-07-22T13:25:19;5.40;;;2.00;;
18146;SDS011;9199;48.832;9.182;2023-07-22T13:27:46;3.97;;;1.65;;
18146;SDS011;9199;48.832;9.182;2023-07-22T13:30:13;4.13;;;1.83;;
18146;SDS011;9199;48.832;9.182;2023-07-22T13:32:39;5.40;;;2.10;;
18146;SDS011;9199;48.832;9.182;2023-07-22T13:35:07;5.07;;;2.95;;
18146;SDS011;9199;48.832;9.182;2023-07-22T13:37:36;4.93;;;2.13;;
18146;SDS011;9199;48.832;9.182;2023-07-22T13:40:03;5.07;;;2.00;;
18146;SDS011;9199;48.832;9.182;2023-07-22T13:42:35;4.70;;;2.33;;
18146;SDS011;9199;48.832;9.182;2023-07-22T13:45:03;4.40;;;2.40;;
18146;SDS011;9199;48.832;9.182;2023-07-22T13:47:30;4.93;;;2.08;;
18146;SDS011;9199;48.832;9.182;2023-07-22T13:49:57;4.13;;;2.10;;
18146;SDS011;9199;48.832;9.182;2023-07-22T13:52:24;4.00;;;2.08;;
18146;SDS011;9199;48.832;9.182;2023-07-22T13:54:52;4.10;;;2.20;;
18146;SDS011;9199;48.832;9.182;2023-07-22T13:57:18;4.85;;;2.03;;
18146;SDS011;9199;48.832;9.182;2023-07-22T13:59:45;4.45;;;2.38;;
18146;SDS011;9199;48.832;9.182;2023-07-22T14:02:12;4.97;;;2.20;;
18146;SDS011;9199;48.832;9.182;2023-07-22T14:04:38;6.25;;;2.28;;
18146;SDS011;9199;48.832;9.182;2023-07-22T14:07:05;4.95;;;2.50;;
18146;SDS011;9199;48.832;9.182;2023-07-22T14:09:32;5.13;;;2.20;;
18146;SDS011;9199;48.832;9.182;2023-07-22T14:12:00;4.28;;;2.15;;
18146;SDS011;9199;48.832;9.182;2023-07-22T14:14:28;4.63;;;2.40;;
18146;SDS011;9199;48.832;9.182;2023-07-22T14:16:54;4.13;;;2.20;;
18146;SDS011;9199;48.832;9.182;2023-07-22T14:19:21;4.32;;;2.20;;
18146;SDS011;9199;48.832;9.182;2023-07-22T14:21:49;4.82;;;2.05;;
18146;SDS011;9199;48.832;9.182;2023-07-22T14:24:18;5.22;;;2.05;;
18146;SDS011;9199;48.832;9.182;2023-07-22T14:26:45;3.97;;;2.03;;
18146;SDS011;9199;48.832;9.182;2023-07-22T14:29:14;4.38;;;2.28;;
18146;SDS011;9199;48.832;9.182;2023-07-22T14:31:41;3.90;;;2.00;;
18146;SDS011;9199;48.832;9.182;2023-07-22T14:34:08;4.38;;;2.20;;
18146;SDS011;9199;48.832;9.182;2023-07-22T14:36:35;4.43;;;2.13;;
18146;SDS011;9199;48.832;9.182;2023-07-22T14:39:02;4.03;;;2.30;;
18146;SDS011;9199;48.832;9.182;2023-07-22T14:41:29;4.80;;;2.10;;
18146;SDS011;9199;48.832;9.182;2023-07-22T14:43:56;4.97;;;2.10;;
18146;SDS011;9199;48.832;9.182;2023-07-22T14:46:24;4.85;;;2.35;;
18146;SDS011;9199;48.832;9.182;2023-07-22T14:48:51;4.60;;;2.17;;
18146;SDS011;9199;48.832;9.182;2023-07-22T14:51:18;4.47;;;2.23;;
18146;SDS011;9199;48.832;9.182;2023-07-22T14:53:45;4.50;;;2.00;;
18146;SDS011;9199;48.832;9.182;2023-07-22T14:56:12;4.53;;;2.33;;
18146;SDS011;9199;48.832;9.182;2023-07-22T14:58:38;5.72;;;2.28;;
18146;SDS011;9199;48.832;9.182;2023-07-22T15:01:05;5.20;;;2.35;;
18146;SDS011;9199;48.832;9.182;2023-07-22T15:03:35;4.87;;;2.37;;
18146;SDS011;9199;48.832;9.182;2023-07-22T15:06:03;6.03;;;2.60;;
18146;SDS011;9199;48.832;9.182;2023-07-22T15:08:29;5.20;;;2.35;;